sensor_id;sensor_type;location;lat;lon;timestamp;pressure;altitude;pressure_sealevel;temperature;humidity
65897;BME280;52677;50.898;10.854;2022-09-02T00:01:02;98985.88;;;8.47;73.64
65897;BME280;52677;50.898;10.854;2022-09-02T00:03:03;98988.88;;;8.41;72.86
65897;BME280;52677;50.898;10.854;2022-09-02T00:05:04;98990.84;;;8.41;72.77
65897;BME280;52677;50.898;10.854;2022-09-02T00:07:05;98987.63;;;8.39;72.69
65897;BME280;52677;50.898;10.854;2022-09-02T00:09:08;98994.66;;;8.36;72.05
65897;BME280;52677;50.898;10.854;2022-09-02T00:11:11;98999.22;;;8.32;72.14
65897;BME280;52677;50.898;10.854;2022-09-02T00:13:14;98995.59;;;8.28;73.10
65897;BME280;52677;50.898;10.854;2022-09-02T00:15:15;98991.34;;;8.18;73.68
65897;BME280;52677;50.898;10.854;2022-09-02T00:17:15;98993.28;;;8.18;73.75
65897;BME280;52677;50.898;10.854;2022-09-02T00:19:18;98995.16;;;8.14;73.77
65897;BME280;52677;50.898;10.854;2022-09-02T00:21:20;98982.09;;;8.11;74.23
65897;BME280;52677;50.898;10.854;2022-09-02T00:23:21;98986.31;;;8.08;74.33
65897;BME280;52677;50.898;10.854;2022-09-02T00:25:22;98981.53;;;8.05;74.46
65897;BME280;52677;50.898;10.854;2022-09-02T00:27:22;98983.47;;;8.05;74.67
65897;BME280;52677;50.898;10.854;2022-09-02T00:29:24;98988.53;;;8.03;75.06
65897;BME280;52677;50.898;10.854;2022-09-02T00:31:25;98975.88;;;8.02;74.24
65897;BME280;52677;50.898;10.854;2022-09-02T00:33:27;98982.31;;;8.06;74.66
65897;BME280;52677;50.898;10.854;2022-09-02T00:35:29;98984.38;;;8.09;75.28
65897;BME280;52677;50.898;10.854;2022-09-02T00:37:29;98978.41;;;8.07;75.22
65897;BME280;52677;50.898;10.854;2022-09-02T00:39:30;98973.94;;;8.02;75.84
65897;BME280;52677;50.898;10.854;2022-09-02T00:41:30;98974.66;;;7.99;75.41
65897;BME280;52677;50.898;10.854;2022-09-02T00:45:39;98963.97;;;7.98;75.51
65897;BME280;52677;50.898;10.854;2022-09-02T00:47:40;98969.13;;;7.99;74.68
65897;BME280;52677;50.898;10.854;2022-09-02T00:49:43;98965.94;;;7.97;75.12
65897;BME280;52677;50.898;10.854;2022-09-02T00:51:47;98972.03;;;7.91;76.03
65897;BME280;52677;50.898;10.854;2022-09-02T00:53:50;98978.69;;;7.89;76.01
65897;BME280;52677;50.898;10.854;2022-09-02T00:55:51;98975.50;;;7.87;76.21
65897;BME280;52677;50.898;10.854;2022-09-02T00:57:58;98971.22;;;7.90;75.46
65897;BME280;52677;50.898;10.854;2022-09-02T01:00:08;98978.78;;;7.93;74.99
65897;BME280;52677;50.898;10.854;2022-09-02T01:02:10;98975.59;;;7.91;75.62
65897;BME280;52677;50.898;10.854;2022-09-02T01:04:11;98972.34;;;8.01;74.55
65897;BME280;52677;50.898;10.854;2022-09-02T01:06:11;98967.97;;;8.00;74.69
65897;BME280;52677;50.898;10.854;2022-09-02T01:08:20;98969.56;;;8.01;74.89
65897;BME280;52677;50.898;10.854;2022-09-02T01:10:34;98967.63;;;8.02;75.72
65897;BME280;52677;50.898;10.854;2022-09-02T01:12:34;98957.06;;;8.04;75.88
65897;BME280;52677;50.898;10.854;2022-09-02T01:14:35;98961.88;;;8.07;76.14
65897;BME280;52677;50.898;10.854;2022-09-02T01:16:41;98961.06;;;8.06;75.79
65897;BME280;52677;50.898;10.854;2022-09-02T01:18:46;98956.81;;;8.09;75.54
65897;BME280;52677;50.898;10.854;2022-09-02T01:20:49;98959.56;;;8.09;75.82
65897;BME280;52677;50.898;10.854;2022-09-02T01:22:50;98958.69;;;8.05;76.84
65897;BME280;52677;50.898;10.854;2022-09-02T01:24:51;98958.22;;;8.03;77.13
65897;BME280;52677;50.898;10.854;2022-09-02T01:26:53;98958.69;;;8.05;76.17
65897;BME280;52677;50.898;10.854;2022-09-02T01:28:54;98961.97;;;8.10;76.55
65897;BME280;52677;50.898;10.854;2022-09-02T01:30:54;98963.03;;;8.06;77.34
65897;BME280;52677;50.898;10.854;2022-09-02T01:32:55;98959.84;;;8.04;77.57
65897;BME280;52677;50.898;10.854;2022-09-02T01:34:55;98963.75;;;8.03;78.67
65897;BME280;52677;50.898;10.854;2022-09-02T01:36:57;98971.19;;;8.02;78.73
65897;BME280;52677;50.898;10.854;2022-09-02T01:38:57;98965.56;;;7.99;78.96
65897;BME280;52677;50.898;10.854;2022-09-02T01:40:58;98962.03;;;7.98;78.40
65897;BME280;52677;50.898;10.854;2022-09-02T01:43:04;98951.81;;;7.99;77.08
65897;BME280;52677;50.898;10.854;2022-09-02T01:45:07;98953.59;;;8.07;76.73
65897;BME280;52677;50.898;10.854;2022-09-02T01:47:12;98961.88;;;8.07;77.20
65897;BME280;52677;50.898;10.854;2022-09-02T01:49:13;98953.97;;;8.05;76.99
65897;BME280;52677;50.898;10.854;2022-09-02T01:51:17;98952.72;;;8.03;77.27
65897;BME280;52677;50.898;10.854;2022-09-02T01:53:18;98956.59;;;8.02;77.38
65897;BME280;52677;50.898;10.854;2022-09-02T01:55:18;98962.03;;;7.98;78.01
65897;BME280;52677;50.898;10.854;2022-09-02T01:57:19;98952.03;;;7.94;77.71
65897;BME280;52677;50.898;10.854;2022-09-02T01:59:19;98957.91;;;7.92;77.46
65897;BME280;52677;50.898;10.854;2022-09-02T02:01:20;98953.91;;;7.89;77.37
65897;BME280;52677;50.898;10.854;2022-09-02T02:03:20;98948.84;;;7.92;77.75
65897;BME280;52677;50.898;10.854;2022-09-02T02:05:21;98951.22;;;7.93;78.44
65897;BME280;52677;50.898;10.854;2022-09-02T02:07:22;98947.00;;;7.96;78.66
65897;BME280;52677;50.898;10.854;2022-09-02T02:09:24;98943.97;;;8.01;77.67
65897;BME280;52677;50.898;10.854;2022-09-02T02:11:25;98938.59;;;8.04;78.15
65897;BME280;52677;50.898;10.854;2022-09-02T02:13:26;98945.25;;;8.03;79.09
65897;BME280;52677;50.898;10.854;2022-09-02T02:15:26;98940.06;;;8.02;79.67
65897;BME280;52677;50.898;10.854;2022-09-02T02:17:27;98941.94;;;7.98;79.93
65897;BME280;52677;50.898;10.854;2022-09-02T02:19:27;98946.53;;;7.94;80.44
65897;BME280;52677;50.898;10.854;2022-09-02T02:21:28;98926.34;;;7.89;80.03
65897;BME280;52677;50.898;10.854;2022-09-02T02:23:28;98937.00;;;7.91;80.15
65897;BME280;52677;50.898;10.854;2022-09-02T02:25:28;98934.69;;;7.93;79.43
65897;BME280;52677;50.898;10.854;2022-09-02T02:27:29;98934.25;;;7.91;79.14
65897;BME280;52677;50.898;10.854;2022-09-02T02:29:29;98935.75;;;7.88;79.06
65897;BME280;52677;50.898;10.854;2022-09-02T02:31:30;98927.38;;;7.85;79.46
65897;BME280;52677;50.898;10.854;2022-09-02T02:33:31;98927.72;;;7.83;79.58
65897;BME280;52677;50.898;10.854;2022-09-02T02:35:31;98933.50;;;7.78;79.85
65897;BME280;52677;50.898;10.854;2022-09-02T02:37:32;98924.88;;;7.80;77.74
65897;BME280;52677;50.898;10.854;2022-09-02T02:39:32;98929.59;;;7.79;78.56
65897;BME280;52677;50.898;10.854;2022-09-02T02:41:33;98929.94;;;7.78;78.97
65897;BME280;52677;50.898;10.854;2022-09-02T02:43:35;98928.94;;;7.70;79.48
65897;BME280;52677;50.898;10.854;2022-09-02T02:45:35;98928.81;;;7.67;79.60
65897;BME280;52677;50.898;10.854;2022-09-02T02:47:39;98931.69;;;7.58;80.94
65897;BME280;52677;50.898;10.854;2022-09-02T02:49:42;98933.06;;;7.52;81.31
65897;BME280;52677;50.898;10.854;2022-09-02T02:51:42;98938.94;;;7.50;81.48
65897;BME280;52677;50.898;10.854;2022-09-02T02:53:43;98933.34;;;7.47;81.22
65897;BME280;52677;50.898;10.854;2022-09-02T02:55:44;98928.72;;;7.51;80.52
65897;BME280;52677;50.898;10.854;2022-09-02T02:57:45;98934.69;;;7.53;80.13
65897;BME280;52677;50.898;10.854;2022-09-02T02:59:45;98935.59;;;7.57;79.47
65897;BME280;52677;50.898;10.854;2022-09-02T03:01:46;98922.28;;;7.59;78.83
65897;BME280;52677;50.898;10.854;2022-09-02T03:03:46;98937.44;;;7.65;78.83
65897;BME280;52677;50.898;10.854;2022-09-02T03:05:47;98933.97;;;7.68;78.28
65897;BME280;52677;50.898;10.854;2022-09-02T03:07:48;98936.28;;;7.66;79.19
65897;BME280;52677;50.898;10.854;2022-09-02T03:09:48;98933.16;;;7.68;79.85
65897;BME280;52677;50.898;10.854;2022-09-02T03:11:48;98930.41;;;7.68;80.05
65897;BME280;52677;50.898;10.854;2022-09-02T03:13:49;98929.25;;;7.69;80.27
65897;BME280;52677;50.898;10.854;2022-09-02T03:15:50;98923.31;;;7.67;80.92
65897;BME280;52677;50.898;10.854;2022-09-02T03:17:51;98916.41;;;7.60;81.94
65897;BME280;52677;50.898;10.854;2022-09-02T03:19:51;98927.13;;;7.62;82.28
65897;BME280;52677;50.898;10.854;2022-09-02T03:21:53;98927.56;;;7.64;81.00
65897;BME280;52677;50.898;10.854;2022-09-02T03:23:54;98921.00;;;7.69;80.29
65897;BME280;52677;50.898;10.854;2022-09-02T03:25:55;98919.03;;;7.69;80.53
65897;BME280;52677;50.898;10.854;2022-09-02T03:27:55;98923.44;;;7.70;80.89
65897;BME280;52677;50.898;10.854;2022-09-02T03:29:56;98923.06;;;7.72;80.66
65897;BME280;52677;50.898;10.854;2022-09-02T03:31:56;98920.66;;;7.70;80.84
65897;BME280;52677;50.898;10.854;2022-09-02T03:33:56;98919.53;;;7.71;80.92
65897;BME280;52677;50.898;10.854;2022-09-02T03:35:57;98916.06;;;7.74;80.31
65897;BME280;52677;50.898;10.854;2022-09-02T03:37:58;98908.59;;;7.75;80.74
65897;BME280;52677;50.898;10.854;2022-09-02T03:40:09;98917.78;;;7.79;80.40
65897;BME280;52677;50.898;10.854;2022-09-02T03:42:10;98909.03;;;7.77;80.95
65897;BME280;52677;50.898;10.854;2022-09-02T03:44:12;98917.78;;;7.79;80.42
65897;BME280;52677;50.898;10.854;2022-09-02T03:46:12;98916.28;;;7.81;79.93
65897;BME280;52677;50.898;10.854;2022-09-02T03:48:13;98910.31;;;7.79;80.69
65897;BME280;52677;50.898;10.854;2022-09-02T03:50:13;98912.94;;;7.76;81.31
65897;BME280;52677;50.898;10.854;2022-09-02T03:52:14;98915.59;;;7.72;81.59
65897;BME280;52677;50.898;10.854;2022-09-02T03:54:14;98908.03;;;7.69;81.44
65897;BME280;52677;50.898;10.854;2022-09-02T03:56:15;98910.25;;;7.64;82.69
65897;BME280;52677;50.898;10.854;2022-09-02T03:58:16;98906.47;;;7.56;83.59
65897;BME280;52677;50.898;10.854;2022-09-02T04:00:18;98918.63;;;7.55;84.01
65897;BME280;52677;50.898;10.854;2022-09-02T04:02:19;98915.06;;;7.54;84.63
65897;BME280;52677;50.898;10.854;2022-09-02T04:04:19;98913.94;;;7.55;84.94
65897;BME280;52677;50.898;10.854;2022-09-02T04:06:22;98923.00;;;7.56;85.07
65897;BME280;52677;50.898;10.854;2022-09-02T04:08:24;98917.94;;;7.58;84.81
65897;BME280;52677;50.898;10.854;2022-09-02T04:10:25;98923.09;;;7.59;84.50
65897;BME280;52677;50.898;10.854;2022-09-02T04:12:25;98926.75;;;7.64;83.24
65897;BME280;52677;50.898;10.854;2022-09-02T04:14:26;98915.03;;;7.67;82.95
65897;BME280;52677;50.898;10.854;2022-09-02T04:16:26;98915.84;;;7.67;83.77
65897;BME280;52677;50.898;10.854;2022-09-02T04:18:28;98916.28;;;7.69;83.13
65897;BME280;52677;50.898;10.854;2022-09-02T04:20:29;98916.50;;;7.76;81.71
65897;BME280;52677;50.898;10.854;2022-09-02T04:22:30;98917.88;;;7.82;81.75
65897;BME280;52677;50.898;10.854;2022-09-02T04:24:30;98910.84;;;7.85;81.97
65897;BME280;52677;50.898;10.854;2022-09-02T04:26:31;98923.47;;;7.86;82.66
65897;BME280;52677;50.898;10.854;2022-09-02T04:28:32;98912.81;;;7.84;83.01
65897;BME280;52677;50.898;10.854;2022-09-02T04:30:32;98920.63;;;7.82;82.89
65897;BME280;52677;50.898;10.854;2022-09-02T04:32:34;98906.94;;;7.86;82.66
65897;BME280;52677;50.898;10.854;2022-09-02T04:34:34;98914.25;;;7.94;82.22
65897;BME280;52677;50.898;10.854;2022-09-02T04:36:35;98912.34;;;7.95;82.19
65897;BME280;52677;50.898;10.854;2022-09-02T04:38:35;98904.97;;;7.99;81.88
65897;BME280;52677;50.898;10.854;2022-09-02T04:40:44;98913.00;;;8.04;81.67
65897;BME280;52677;50.898;10.854;2022-09-02T04:42:45;98904.00;;;8.07;81.52
65897;BME280;52677;50.898;10.854;2022-09-02T04:44:46;98908.72;;;8.06;81.79
65897;BME280;52677;50.898;10.854;2022-09-02T04:46:46;98914.31;;;8.10;82.40
65897;BME280;52677;50.898;10.854;2022-09-02T04:48:47;98910.88;;;8.13;81.70
65897;BME280;52677;50.898;10.854;2022-09-02T04:50:48;98909.28;;;8.12;82.03
65897;BME280;52677;50.898;10.854;2022-09-02T04:52:48;98901.81;;;8.12;81.78
65897;BME280;52677;50.898;10.854;2022-09-02T04:54:49;98905.59;;;8.08;83.23
65897;BME280;52677;50.898;10.854;2022-09-02T04:56:49;98913.00;;;8.04;83.53
65897;BME280;52677;50.898;10.854;2022-09-02T04:58:51;98906.19;;;8.01;83.58
65897;BME280;52677;50.898;10.854;2022-09-02T05:00:51;98906.56;;;8.00;83.38
65897;BME280;52677;50.898;10.854;2022-09-02T05:02:53;98904.50;;;7.97;83.31
65897;BME280;52677;50.898;10.854;2022-09-02T05:04:53;98920.69;;;7.98;84.03
65897;BME280;52677;50.898;10.854;2022-09-02T05:06:54;98912.06;;;8.00;83.53
65897;BME280;52677;50.898;10.854;2022-09-02T05:08:56;98917.22;;;8.01;83.92
65897;BME280;52677;50.898;10.854;2022-09-02T05:10:58;98921.50;;;7.99;83.74
65897;BME280;52677;50.898;10.854;2022-09-02T05:13:00;98919.97;;;8.01;83.52
65897;BME280;52677;50.898;10.854;2022-09-02T05:15:00;98921.56;;;8.02;83.91
65897;BME280;52677;50.898;10.854;2022-09-02T05:17:01;98917.22;;;8.01;83.89
65897;BME280;52677;50.898;10.854;2022-09-02T05:19:03;98915.25;;;8.02;83.95
65897;BME280;52677;50.898;10.854;2022-09-02T05:21:05;98916.91;;;8.03;83.84
65897;BME280;52677;50.898;10.854;2022-09-02T05:23:05;98907.78;;;8.02;84.57
65897;BME280;52677;50.898;10.854;2022-09-02T05:25:06;98914.66;;;8.08;83.67
65897;BME280;52677;50.898;10.854;2022-09-02T05:27:08;98913.63;;;8.13;83.79
65897;BME280;52677;50.898;10.854;2022-09-02T05:29:10;98922.00;;;8.16;83.85
65897;BME280;52677;50.898;10.854;2022-09-02T05:31:13;98912.31;;;8.23;82.76
65897;BME280;52677;50.898;10.854;2022-09-02T05:33:15;98916.31;;;8.25;82.59
65897;BME280;52677;50.898;10.854;2022-09-02T05:35:15;98916.88;;;8.31;83.47
65897;BME280;52677;50.898;10.854;2022-09-02T05:37:16;98920.44;;;8.31;83.38
65897;BME280;52677;50.898;10.854;2022-09-02T05:39:16;98923.78;;;8.37;83.28
65897;BME280;52677;50.898;10.854;2022-09-02T05:41:20;98915.59;;;8.40;83.42
65897;BME280;52677;50.898;10.854;2022-09-02T05:43:24;98914.53;;;8.45;83.37
65897;BME280;52677;50.898;10.854;2022-09-02T05:45:25;98914.19;;;8.47;83.44
65897;BME280;52677;50.898;10.854;2022-09-02T05:47:25;98918.28;;;8.53;83.53
65897;BME280;52677;50.898;10.854;2022-09-02T05:49:25;98921.94;;;8.57;83.38
65897;BME280;52677;50.898;10.854;2022-09-02T05:51:26;98914.91;;;8.59;84.09
65897;BME280;52677;50.898;10.854;2022-09-02T05:53:26;98919.72;;;8.62;84.18
65897;BME280;52677;50.898;10.854;2022-09-02T05:55:26;98914.28;;;8.66;84.06
65897;BME280;52677;50.898;10.854;2022-09-02T05:57:27;98909.31;;;8.71;84.34
65897;BME280;52677;50.898;10.854;2022-09-02T05:59:29;98913.69;;;8.72;84.79
65897;BME280;52677;50.898;10.854;2022-09-02T06:01:30;98907.09;;;8.77;84.70
65897;BME280;52677;50.898;10.854;2022-09-02T06:03:30;98910.75;;;8.81;84.22
65897;BME280;52677;50.898;10.854;2022-09-02T06:05:30;98907.38;;;8.88;83.43
65897;BME280;52677;50.898;10.854;2022-09-02T06:07:31;98911.81;;;8.92;84.12
65897;BME280;52677;50.898;10.854;2022-09-02T06:09:35;98916.25;;;8.97;84.38
65897;BME280;52677;50.898;10.854;2022-09-02T06:11:37;98911.63;;;9.01;83.62
65897;BME280;52677;50.898;10.854;2022-09-02T06:13:41;98908.34;;;9.11;82.51
65897;BME280;52677;50.898;10.854;2022-09-02T06:15:41;98915.97;;;9.18;83.02
65897;BME280;52677;50.898;10.854;2022-09-02T06:17:43;98917.66;;;9.22;83.11
65897;BME280;52677;50.898;10.854;2022-09-02T06:19:43;98918.63;;;9.30;84.00
65897;BME280;52677;50.898;10.854;2022-09-02T06:21:43;98916.75;;;9.34;84.33
65897;BME280;52677;50.898;10.854;2022-09-02T06:23:46;98908.19;;;9.39;84.27
65897;BME280;52677;50.898;10.854;2022-09-02T06:25:49;98921.81;;;9.48;84.55
65897;BME280;52677;50.898;10.854;2022-09-02T06:27:49;98913.69;;;9.55;84.72
65897;BME280;52677;50.898;10.854;2022-09-02T06:29:50;98921.78;;;9.64;84.98
65897;BME280;52677;50.898;10.854;2022-09-02T06:31:51;98919.16;;;9.71;85.56
65897;BME280;52677;50.898;10.854;2022-09-02T06:33:54;98919.69;;;9.76;85.27
65897;BME280;52677;50.898;10.854;2022-09-02T06:35:54;98921.34;;;9.81;84.22
65897;BME280;52677;50.898;10.854;2022-09-02T06:37:55;98915.63;;;9.90;83.71
65897;BME280;52677;50.898;10.854;2022-09-02T06:39:55;98916.19;;;9.99;82.98
65897;BME280;52677;50.898;10.854;2022-09-02T06:41:55;98921.88;;;10.06;82.53
65897;BME280;52677;50.898;10.854;2022-09-02T06:43:58;98921.66;;;10.14;81.31
65897;BME280;52677;50.898;10.854;2022-09-02T06:45:59;98917.53;;;10.24;81.71
65897;BME280;52677;50.898;10.854;2022-09-02T06:47:59;98915.41;;;10.37;80.48
65897;BME280;52677;50.898;10.854;2022-09-02T06:50:00;98918.31;;;10.44;81.95
65897;BME280;52677;50.898;10.854;2022-09-02T06:52:01;98910.59;;;10.53;82.04
65897;BME280;52677;50.898;10.854;2022-09-02T06:54:04;98909.97;;;10.63;82.18
65897;BME280;52677;50.898;10.854;2022-09-02T06:56:06;98910.47;;;10.69;82.43
65897;BME280;52677;50.898;10.854;2022-09-02T06:58:06;98907.84;;;10.76;82.24
65897;BME280;52677;50.898;10.854;2022-09-02T07:00:08;98904.84;;;10.85;82.35
65897;BME280;52677;50.898;10.854;2022-09-02T07:02:09;98910.16;;;10.97;82.42
65897;BME280;52677;50.898;10.854;2022-09-02T07:04:09;98911.13;;;11.08;81.89
65897;BME280;52677;50.898;10.854;2022-09-02T07:06:32;98902.63;;;11.20;81.22
65897;BME280;52677;50.898;10.854;2022-09-02T07:08:40;98899.28;;;11.34;81.53
65897;BME280;52677;50.898;10.854;2022-09-02T07:10:41;98906.16;;;11.44;81.00
65897;BME280;52677;50.898;10.854;2022-09-02T07:12:41;98898.75;;;11.51;80.37
65897;BME280;52677;50.898;10.854;2022-09-02T07:14:42;98898.88;;;11.59;79.34
65897;BME280;52677;50.898;10.854;2022-09-02T07:16:46;98904.47;;;11.66;78.80
65897;BME280;52677;50.898;10.854;2022-09-02T07:18:47;98904.97;;;11.71;79.11
65897;BME280;52677;50.898;10.854;2022-09-02T07:20:47;98906.72;;;11.83;79.17
65897;BME280;52677;50.898;10.854;2022-09-02T07:22:47;98910.44;;;11.94;78.79
65897;BME280;52677;50.898;10.854;2022-09-02T07:24:48;98910.97;;;12.03;78.03
65897;BME280;52677;50.898;10.854;2022-09-02T07:26:49;98907.50;;;12.14;78.05
65897;BME280;52677;50.898;10.854;2022-09-02T07:28:50;98911.66;;;12.27;77.84
65897;BME280;52677;50.898;10.854;2022-09-02T07:30:51;98898.28;;;12.36;76.64
65897;BME280;52677;50.898;10.854;2022-09-02T07:32:53;98895.56;;;12.43;76.35
65897;BME280;52677;50.898;10.854;2022-09-02T07:34:53;98897.66;;;12.53;76.20
65897;BME280;52677;50.898;10.854;2022-09-02T07:36:55;98903.75;;;12.66;75.95
65897;BME280;52677;50.898;10.854;2022-09-02T07:38:55;98895.91;;;12.79;76.01
65897;BME280;52677;50.898;10.854;2022-09-02T07:40:55;98901.63;;;12.97;74.63
65897;BME280;52677;50.898;10.854;2022-09-02T07:42:56;98897.78;;;13.08;74.25
65897;BME280;52677;50.898;10.854;2022-09-02T07:44:56;98901.06;;;13.21;73.71
65897;BME280;52677;50.898;10.854;2022-09-02T07:46:56;98890.81;;;13.29;71.04
65897;BME280;52677;50.898;10.854;2022-09-02T07:49:01;98896.81;;;13.38;72.86
65897;BME280;52677;50.898;10.854;2022-09-02T07:51:05;98899.69;;;13.52;72.83
65897;BME280;52677;50.898;10.854;2022-09-02T07:53:05;98897.78;;;13.63;71.83
65897;BME280;52677;50.898;10.854;2022-09-02T07:55:06;98897.06;;;13.77;71.58
65897;BME280;52677;50.898;10.854;2022-09-02T07:57:06;98904.25;;;13.85;70.54
65897;BME280;52677;50.898;10.854;2022-09-02T07:59:08;98907.88;;;13.93;70.77
65897;BME280;52677;50.898;10.854;2022-09-02T08:01:09;98901.16;;;14.04;70.82
65897;BME280;52677;50.898;10.854;2022-09-02T08:03:10;98897.63;;;14.15;69.91
65897;BME280;52677;50.898;10.854;2022-09-02T08:05:12;98897.28;;;14.27;69.77
65897;BME280;52677;50.898;10.854;2022-09-02T08:07:12;98897.31;;;14.34;68.82
65897;BME280;52677;50.898;10.854;2022-09-02T08:09:13;98898.53;;;14.40;69.22
65897;BME280;52677;50.898;10.854;2022-09-02T08:11:14;98895.41;;;14.52;68.79
65897;BME280;52677;50.898;10.854;2022-09-02T08:13:15;98902.56;;;14.60;68.90
65897;BME280;52677;50.898;10.854;2022-09-02T08:15:16;98892.25;;;14.65;67.85
65897;BME280;52677;50.898;10.854;2022-09-02T08:17:19;98900.22;;;14.66;67.34
65897;BME280;52677;50.898;10.854;2022-09-02T08:19:20;98896.63;;;14.76;67.93
65897;BME280;52677;50.898;10.854;2022-09-02T08:21:21;98899.84;;;14.82;66.97
65897;BME280;52677;50.898;10.854;2022-09-02T08:23:21;98893.88;;;14.91;67.29
65897;BME280;52677;50.898;10.854;2022-09-02T08:25:21;98899.84;;;15.03;66.83
65897;BME280;52677;50.898;10.854;2022-09-02T08:27:22;98894.66;;;15.12;66.80
65897;BME280;52677;50.898;10.854;2022-09-02T08:29:22;98892.28;;;15.25;65.96
65897;BME280;52677;50.898;10.854;2022-09-02T08:31:23;98877.13;;;15.40;65.68
65897;BME280;52677;50.898;10.854;2022-09-02T08:33:23;98892.22;;;15.54;64.86
65897;BME280;52677;50.898;10.854;2022-09-02T08:35:24;98886.69;;;15.64;64.12
65897;BME280;52677;50.898;10.854;2022-09-02T08:37:26;98874.69;;;15.71;64.26
65897;BME280;52677;50.898;10.854;2022-09-02T08:39:26;98880.22;;;15.85;63.88
65897;BME280;52677;50.898;10.854;2022-09-02T08:41:37;98881.38;;;15.95;63.29
65897;BME280;52677;50.898;10.854;2022-09-02T08:43:42;98877.00;;;16.01;62.79
65897;BME280;52677;50.898;10.854;2022-09-02T08:45:43;98872.59;;;16.00;61.87
65897;BME280;52677;50.898;10.854;2022-09-02T08:47:47;98879.38;;;16.06;62.34
65897;BME280;52677;50.898;10.854;2022-09-02T08:49:56;98867.34;;;16.16;62.49
65897;BME280;52677;50.898;10.854;2022-09-02T08:52:01;98867.66;;;16.36;60.87
65897;BME280;52677;50.898;10.854;2022-09-02T08:54:09;98866.38;;;16.51;60.31
65897;BME280;52677;50.898;10.854;2022-09-02T08:56:14;98861.13;;;16.61;60.22
65897;BME280;52677;50.898;10.854;2022-09-02T08:58:18;98861.06;;;16.68;59.77
65897;BME280;52677;50.898;10.854;2022-09-02T09:00:20;98857.84;;;16.80;59.04
65897;BME280;52677;50.898;10.854;2022-09-02T09:11:27;98851.41;;;17.31;56.34
65897;BME280;52677;50.898;10.854;2022-09-02T09:14:17;98849.66;;;17.45;55.71
65897;BME280;52677;50.898;10.854;2022-09-02T09:19:12;98837.84;;;17.71;52.72
65897;BME280;52677;50.898;10.854;2022-09-02T09:21:13;98832.53;;;17.80;53.39
65897;BME280;52677;50.898;10.854;2022-09-02T09:25:27;98838.03;;;17.87;53.93
65897;BME280;52677;50.898;10.854;2022-09-02T09:27:30;98838.03;;;17.87;52.94
65897;BME280;52677;50.898;10.854;2022-09-02T09:29:32;98839.50;;;17.95;50.66
65897;BME280;52677;50.898;10.854;2022-09-02T09:31:34;98835.47;;;18.00;51.79
65897;BME280;52677;50.898;10.854;2022-09-02T09:33:34;98833.28;;;18.15;50.31
65897;BME280;52677;50.898;10.854;2022-09-02T09:35:54;98832.34;;;18.25;50.92
65897;BME280;52677;50.898;10.854;2022-09-02T09:37:55;98821.56;;;18.23;49.46
65897;BME280;52677;50.898;10.854;2022-09-02T09:39:56;98817.47;;;18.28;50.21
65897;BME280;52677;50.898;10.854;2022-09-02T09:42:11;98821.78;;;18.36;49.00
65897;BME280;52677;50.898;10.854;2022-09-02T09:46:33;98811.84;;;18.86;47.45
65897;BME280;52677;50.898;10.854;2022-09-02T09:48:33;98801.06;;;19.07;46.21
65897;BME280;52677;50.898;10.854;2022-09-02T09:50:34;98799.50;;;19.26;45.55
65897;BME280;52677;50.898;10.854;2022-09-02T09:52:35;98800.16;;;19.34;46.10
65897;BME280;52677;50.898;10.854;2022-09-02T09:54:37;98796.09;;;19.39;45.06
65897;BME280;52677;50.898;10.854;2022-09-02T09:56:37;98796.38;;;19.44;45.35
65897;BME280;52677;50.898;10.854;2022-09-02T10:00:38;98799.88;;;19.72;43.69
65897;BME280;52677;50.898;10.854;2022-09-02T10:02:48;98806.84;;;19.83;43.54
65897;BME280;52677;50.898;10.854;2022-09-02T10:04:52;98799.50;;;19.89;43.27
65897;BME280;52677;50.898;10.854;2022-09-02T10:06:53;98781.00;;;19.92;43.80
65897;BME280;52677;50.898;10.854;2022-09-02T10:08:56;98790.16;;;19.96;42.86
65897;BME280;52677;50.898;10.854;2022-09-02T10:11:04;98796.97;;;20.15;41.28
65897;BME280;52677;50.898;10.854;2022-09-02T10:13:36;98790.84;;;20.20;42.44
65897;BME280;52677;50.898;10.854;2022-09-02T10:18:17;98788.19;;;19.93;41.57
65897;BME280;52677;50.898;10.854;2022-09-02T10:29:54;98773.38;;;20.29;40.48
65897;BME280;52677;50.898;10.854;2022-09-02T10:32:08;98766.00;;;20.35;40.57
65897;BME280;52677;50.898;10.854;2022-09-02T10:38:49;98755.00;;;20.44;39.31
65897;BME280;52677;50.898;10.854;2022-09-02T10:40:55;98762.19;;;20.45;40.33
65897;BME280;52677;50.898;10.854;2022-09-02T10:43:04;98756.31;;;20.56;40.00
65897;BME280;52677;50.898;10.854;2022-09-02T10:47:22;98742.69;;;20.87;37.08
65897;BME280;52677;50.898;10.854;2022-09-02T10:56:11;98740.56;;;20.91;38.22
65897;BME280;52677;50.898;10.854;2022-09-02T11:00:49;98734.44;;;21.25;34.74
65897;BME280;52677;50.898;10.854;2022-09-02T11:05:17;98731.56;;;21.28;36.06
65897;BME280;52677;50.898;10.854;2022-09-02T11:07:26;98726.66;;;21.45;35.35
65897;BME280;52677;50.898;10.854;2022-09-02T11:09:35;98726.66;;;21.45;36.55
65897;BME280;52677;50.898;10.854;2022-09-02T11:16:26;98719.84;;;21.72;34.83
65897;BME280;52677;50.898;10.854;2022-09-02T11:18:36;98726.53;;;21.91;34.75
65897;BME280;52677;50.898;10.854;2022-09-02T11:23:05;98729.31;;;22.20;34.04
65897;BME280;52677;50.898;10.854;2022-09-02T11:25:21;98721.38;;;22.40;35.65
65897;BME280;52677;50.898;10.854;2022-09-02T11:30:01;98713.91;;;22.59;33.92
65897;BME280;52677;50.898;10.854;2022-09-02T11:32:09;98708.88;;;22.54;33.94
65897;BME280;52677;50.898;10.854;2022-09-02T11:34:25;98708.88;;;22.41;34.02
65897;BME280;52677;50.898;10.854;2022-09-02T11:36:38;98709.78;;;22.25;33.89
65897;BME280;52677;50.898;10.854;2022-09-02T11:38:44;98720.47;;;22.05;34.48
65897;BME280;52677;50.898;10.854;2022-09-02T11:43:51;98718.06;;;21.91;35.65
65897;BME280;52677;50.898;10.854;2022-09-02T11:48:22;98709.88;;;21.96;34.86
65897;BME280;52677;50.898;10.854;2022-09-02T11:55:13;98720.00;;;22.06;35.04